createdAt,value
2022-10-05T00:00:56.953Z,77.46
2022-10-05T00:03:40.390Z,77.30
2022-10-05T00:06:11.188Z,77.39
2022-10-05T00:08:39.209Z,77.44
2022-10-05T00:11:08.399Z,77.49
2022-10-05T00:13:36.060Z,77.36
2022-10-05T00:16:19.786Z,77.43
2022-10-05T00:18:50.532Z,77.64
2022-10-05T00:21:24.130Z,77.50
2022-10-05T00:23:55.595Z,77.59
2022-10-05T00:26:25.827Z,77.81
2022-10-05T00:28:55.194Z,77.79
2022-10-05T00:31:26.182Z,77.64
2022-10-05T00:33:55.867Z,77.72
2022-10-05T00:36:23.684Z,77.65
2022-10-05T00:38:52.272Z,77.92
2022-10-05T00:41:36.204Z,78.03
2022-10-05T00:44:12.723Z,78.04
2022-10-05T00:46:56.440Z,77.94
2022-10-05T00:49:36.476Z,78.13
2022-10-05T00:52:20.059Z,78.28
2022-10-05T00:55:00.039Z,78.23
2022-10-05T00:58:02.712Z,78.47
2022-10-05T01:00:34.156Z,78.55
2022-10-05T01:03:09.162Z,78.66
2022-10-05T01:06:13.068Z,78.62
2022-10-05T01:08:49.790Z,78.61
2022-10-05T01:11:35.461Z,78.75
2022-10-05T01:14:21.932Z,78.95
2022-10-05T01:17:20.342Z,79.07
2022-10-05T01:20:11.556Z,78.83
2022-10-05T01:23:11.158Z,79.17
2022-10-05T01:26:10.777Z,79.23
2022-10-05T01:29:05.264Z,79.14
2022-10-05T01:31:42.842Z,79.42
2022-10-05T01:34:46.976Z,79.50
2022-10-05T01:37:35.557Z,79.64
2022-10-05T01:40:15.082Z,79.50
2022-10-05T01:42:57.718Z,79.70
2022-10-05T01:45:41.480Z,79.62
2022-10-05T01:48:31.723Z,79.81
2022-10-05T01:51:21.251Z,79.86
2022-10-05T01:54:04.883Z,80.01
2022-10-05T01:56:51.661Z,79.87
2022-10-05T01:59:35.675Z,79.99
2022-10-05T02:02:05.175Z,80.04
2022-10-05T02:05:07.485Z,80.08
2022-10-05T02:07:54.903Z,80.06
2022-10-05T02:10:31.141Z,80.16
2022-10-05T02:13:19.625Z,80.11
2022-10-05T02:16:00.594Z,80.39
2022-10-05T02:18:37.502Z,80.50
2022-10-05T02:21:05.666Z,80.75
2022-10-05T02:23:38.021Z,80.70
2022-10-05T02:26:08.685Z,80.61
2022-10-05T02:28:45.637Z,80.90
2022-10-05T02:31:17.659Z,80.78
2022-10-05T02:33:47.205Z,80.89
2022-10-05T02:36:37.660Z,81.05
2022-10-05T02:39:14.687Z,81.03
2022-10-05T02:42:06.531Z,80.98
2022-10-05T02:44:59.395Z,81.07
2022-10-05T02:47:30.176Z,81.07
2022-10-05T02:50:14.233Z,81.34
2022-10-05T02:53:05.107Z,81.27
2022-10-05T02:56:09.035Z,81.30
2022-10-05T02:58:46.216Z,81.54
2022-10-05T03:01:35.564Z,81.66
2022-10-05T03:04:19.874Z,81.32
2022-10-05T03:06:55.874Z,81.50
2022-10-05T03:09:29.071Z,81.52
2022-10-05T03:12:09.716Z,81.47
2022-10-05T03:14:53.571Z,81.95
2022-10-05T03:17:28.610Z,81.91
2022-10-05T03:20:18.655Z,81.71
2022-10-05T03:22:50.982Z,81.61
2022-10-05T03:25:35.273Z,81.68
2022-10-05T03:28:21.345Z,81.82
2022-10-05T03:31:14.223Z,81.77
2022-10-05T03:33:49.901Z,81.84
2022-10-05T03:36:45.931Z,81.72
2022-10-05T03:39:27.310Z,81.95
2022-10-05T03:41:55.321Z,82.07
2022-10-05T03:44:48.151Z,81.91
2022-10-05T03:47:38.883Z,82.08
2022-10-05T03:50:29.381Z,82.10
2022-10-05T03:53:03.046Z,82.05
2022-10-05T03:55:30.703Z,82.28
2022-10-05T03:58:02.875Z,82.25
2022-10-05T04:00:32.010Z,82.20
2022-10-05T04:03:17.359Z,82.33
2022-10-05T04:06:09.100Z,82.29
2022-10-05T04:08:52.117Z,82.50
2022-10-05T04:11:31.761Z,82.66
2022-10-05T04:14:10.082Z,82.83
2022-10-05T04:16:45.188Z,82.87
2022-10-05T04:19:49.261Z,82.95
2022-10-05T04:22:25.487Z,83.10
2022-10-05T04:25:02.864Z,83.08
2022-10-05T04:27:39.142Z,83.13
2022-10-05T04:30:15.514Z,83.05
2022-10-05T04:33:00.486Z,83.12
2022-10-05T04:35:46.107Z,83.09
2022-10-05T04:38:17.205Z,83.14
2022-10-05T04:41:01.566Z,83.35
2022-10-05T04:43:46.371Z,83.26
2022-10-05T04:46:30.315Z,83.30
2022-10-05T04:49:30.383Z,83.44
2022-10-05T04:52:29.936Z,83.65
2022-10-05T04:55:19.917Z,83.78
2022-10-05T04:58:05.083Z,83.66
2022-10-05T05:01:05.091Z,83.75
2022-10-05T05:03:45.719Z,83.79
2022-10-05T05:06:24.810Z,83.87
2022-10-05T05:09:09.383Z,84.03
2022-10-05T05:12:09.266Z,84.03
2022-10-05T05:14:58.662Z,84.14
2022-10-05T05:18:00.225Z,84.05
2022-10-05T05:20:59.176Z,84.19
2022-10-05T05:23:40.075Z,84.40
2022-10-05T05:26:19.242Z,84.33
2022-10-05T05:28:50.514Z,84.16
2022-10-05T05:31:45.654Z,84.22
2022-10-05T05:34:37.261Z,84.35
2022-10-05T05:37:26.391Z,84.30
2022-10-05T05:40:10.041Z,84.35
2022-10-05T05:42:58.790Z,84.38
2022-10-05T05:45:44.175Z,84.47
2022-10-05T05:48:39.887Z,84.33
2022-10-05T05:51:14.154Z,84.38
2022-10-05T05:54:02.379Z,84.36
2022-10-05T05:56:34.763Z,84.43
2022-10-05T05:59:13.329Z,84.59
2022-10-05T06:01:49.006Z,84.59
2022-10-05T06:04:25.343Z,84.60
2022-10-05T06:06:58.100Z,84.57
2022-10-05T06:09:37.956Z,84.45
2022-10-05T06:12:41.753Z,84.69
2022-10-05T06:15:42.111Z,84.69
2022-10-05T06:18:20.403Z,84.73
2022-10-05T06:21:00.885Z,84.72
2022-10-05T06:24:00.597Z,85.00
2022-10-05T06:26:47.700Z,84.83
2022-10-05T06:29:22.728Z,85.08
2022-10-05T06:32:06.130Z,84.98
2022-10-05T06:34:55.572Z,84.97
2022-10-05T06:37:55.881Z,84.98
2022-10-05T06:40:47.799Z,84.81
2022-10-05T06:43:34.692Z,84.68
2022-10-05T06:46:24.579Z,84.84
2022-10-05T06:49:31.002Z,84.84
2022-10-05T06:52:52.608Z,84.75
2022-10-05T06:55:46.723Z,84.66
2022-10-05T06:58:27.723Z,84.46
2022-10-05T07:01:03.327Z,84.41
2022-10-05T07:03:49.844Z,84.28
2022-10-05T07:06:25.763Z,84.22
2022-10-05T07:09:25.348Z,84.02
2022-10-05T07:12:11.788Z,83.83
2022-10-05T07:15:13.291Z,83.57
2022-10-05T07:17:49.185Z,83.48
2022-10-05T07:20:46.849Z,83.74
2022-10-05T07:23:48.929Z,83.28
2022-10-05T07:26:49.341Z,83.22
2022-10-05T07:29:28.915Z,83.24
2022-10-05T07:32:10.892Z,83.00
2022-10-05T07:34:51.421Z,82.99
2022-10-05T07:37:45.521Z,82.95
2022-10-05T07:40:32.770Z,82.68
2022-10-05T07:43:16.400Z,83.10
2022-10-05T07:46:13.524Z,82.77
2022-10-05T07:48:41.342Z,82.50
2022-10-05T07:51:23.187Z,82.20
2022-10-05T07:54:03.807Z,82.18
2022-10-05T07:56:59.322Z,82.38
2022-10-05T07:59:54.166Z,82.29
2022-10-05T08:02:33.409Z,82.00
2022-10-05T08:05:26.675Z,81.61
2022-10-05T08:08:19.630Z,81.60
2022-10-05T08:11:05.194Z,81.51
2022-10-05T08:13:51.512Z,81.75
2022-10-05T08:16:19.836Z,81.41
2022-10-05T08:19:14.255Z,81.45
2022-10-05T08:21:54.144Z,81.49
2022-10-05T08:24:49.773Z,81.42
2022-10-05T08:27:30.051Z,81.44
2022-10-05T08:30:08.985Z,81.13
2022-10-05T08:33:00.480Z,80.88
2022-10-05T08:35:38.501Z,81.00
2022-10-05T08:38:16.840Z,80.89
2022-10-05T08:41:03.012Z,80.88
2022-10-05T08:44:02.634Z,80.58
2022-10-05T08:46:43.305Z,80.25
2022-10-05T08:49:23.541Z,80.47
2022-10-05T08:52:13.243Z,80.49
2022-10-05T08:55:00.012Z,80.36
2022-10-05T08:57:59.812Z,80.02
2022-10-05T09:00:51.685Z,80.04
2022-10-05T09:03:34.842Z,78.99
2022-10-05T09:06:27.070Z,77.89
2022-10-05T09:09:09.219Z,78.09
2022-10-05T09:11:44.968Z,77.97
2022-10-05T09:14:52.431Z,77.32
2022-10-05T09:17:43.064Z,77.52
2022-10-05T09:20:22.775Z,77.28
2022-10-05T09:22:58.052Z,77.14
2022-10-05T09:25:31.497Z,76.78
2022-10-05T09:28:06.642Z,76.26
2022-10-05T09:30:58.359Z,76.19
2022-10-05T09:33:54.295Z,76.02
2022-10-05T09:36:53.855Z,74.87
2022-10-05T09:39:42.947Z,74.83
2022-10-05T09:42:35.828Z,75.36
2022-10-05T09:45:25.759Z,76.05
2022-10-05T09:48:25.917Z,75.52
2022-10-05T09:51:26.643Z,75.62
2022-10-05T09:54:28.879Z,75.23
2022-10-05T09:57:31.509Z,74.63
2022-10-05T10:00:38.546Z,74.62
2022-10-05T10:03:25.493Z,74.89
2022-10-05T10:06:25.413Z,75.08
2022-10-05T10:09:09.197Z,74.87
2022-10-05T10:12:08.813Z,74.61
2022-10-05T10:14:58.232Z,74.96
2022-10-05T10:17:40.221Z,74.48
2022-10-05T10:20:24.511Z,74.98
2022-10-05T10:23:34.159Z,73.60
2022-10-05T10:26:24.836Z,73.43
2022-10-05T10:29:28.454Z,73.49
2022-10-05T10:31:57.296Z,73.35
2022-10-05T10:34:44.057Z,73.00
2022-10-05T10:37:34.308Z,72.85
2022-10-05T10:40:20.247Z,72.41
2022-10-05T10:43:14.683Z,72.22
2022-10-05T10:46:05.451Z,72.17
2022-10-05T10:49:15.677Z,71.53
2022-10-05T10:52:02.345Z,71.16
2022-10-05T10:55:06.369Z,71.00
2022-10-05T10:58:12.350Z,70.90
2022-10-05T11:00:54.734Z,70.70
2022-10-05T11:03:57.364Z,70.45
2022-10-05T11:06:56.989Z,70.12
2022-10-05T11:09:40.987Z,69.96
2022-10-05T11:12:18.089Z,69.60
2022-10-05T11:15:00.697Z,69.21
2022-10-05T11:17:55.210Z,69.40
2022-10-05T11:20:56.103Z,69.52
2022-10-05T11:23:45.850Z,69.33
2022-10-05T11:26:41.474Z,69.36
2022-10-05T11:29:41.461Z,69.33
2022-10-05T11:32:29.504Z,69.15
2022-10-05T11:35:06.392Z,68.75
2022-10-05T11:37:53.654Z,68.68
2022-10-05T11:40:36.382Z,68.25
2022-10-05T11:43:25.885Z,67.77
2022-10-05T11:46:16.708Z,68.05
2022-10-05T11:49:03.215Z,68.15
2022-10-05T11:51:47.401Z,68.29
2022-10-05T11:54:25.746Z,68.13
2022-10-05T11:57:03.957Z,68.19
2022-10-05T11:59:43.145Z,68.31
2022-10-05T12:02:27.232Z,68.18
2022-10-05T12:05:11.205Z,67.91
2022-10-05T12:07:47.620Z,67.99
2022-10-05T12:10:40.277Z,67.99
2022-10-05T12:13:19.328Z,67.51
2022-10-05T12:16:19.367Z,67.51
2022-10-05T12:19:06.854Z,67.22
2022-10-05T12:21:41.579Z,67.31
2022-10-05T12:24:31.493Z,67.31
2022-10-05T12:27:05.780Z,67.03
2022-10-05T12:29:52.765Z,66.08
2022-10-05T12:32:44.714Z,65.70
2022-10-05T12:35:43.926Z,66.24
2022-10-05T12:38:28.720Z,66.69
2022-10-05T12:41:12.970Z,66.04
2022-10-05T12:43:48.259Z,66.06
2022-10-05T12:46:19.063Z,66.00
2022-10-05T12:49:08.691Z,65.86
2022-10-05T12:51:59.944Z,66.07
2022-10-05T12:54:39.060Z,66.26
2022-10-05T12:57:35.535Z,65.92
2022-10-05T13:00:22.457Z,65.83
2022-10-05T13:02:58.066Z,66.01
2022-10-05T13:05:47.168Z,65.91
2022-10-05T13:08:25.437Z,65.92
2022-10-05T13:11:25.032Z,66.21
2022-10-05T13:14:11.504Z,66.30
2022-10-05T13:17:01.122Z,65.84
2022-10-05T13:19:44.564Z,65.59
2022-10-05T13:22:28.279Z,65.83
2022-10-05T13:25:28.553Z,65.87
2022-10-05T13:28:13.035Z,66.17
2022-10-05T13:30:50.597Z,66.27
2022-10-05T13:33:27.167Z,66.37
2022-10-05T13:36:22.590Z,66.38
2022-10-05T13:39:12.504Z,66.39
2022-10-05T13:42:16.376Z,66.62
2022-10-05T13:45:03.247Z,66.78
2022-10-05T13:48:03.094Z,67.03
2022-10-05T13:50:35.415Z,67.01
2022-10-05T13:53:19.166Z,66.86
2022-10-05T13:56:02.762Z,67.06
2022-10-05T13:58:41.591Z,67.13
2022-10-05T14:01:51.448Z,67.23
2022-10-05T14:04:24.635Z,67.31
2022-10-05T14:06:52.653Z,67.30
2022-10-05T14:09:20.266Z,67.43
2022-10-05T14:11:50.880Z,67.49
2022-10-05T14:14:43.019Z,67.50
2022-10-05T14:17:16.744Z,67.68
2022-10-05T14:19:51.048Z,67.54
2022-10-05T14:22:24.794Z,67.64
2022-10-05T14:25:02.849Z,67.62
2022-10-05T14:27:35.129Z,67.71
2022-10-05T14:30:20.788Z,67.65
2022-10-05T14:33:09.044Z,67.63
2022-10-05T14:35:54.608Z,67.73
2022-10-05T14:38:29.813Z,67.84
2022-10-05T14:41:14.768Z,67.95
2022-10-05T14:44:04.539Z,68.01
2022-10-05T14:46:35.542Z,67.93
2022-10-05T14:49:22.159Z,67.90
2022-10-05T14:51:51.561Z,68.09
2022-10-05T14:54:25.146Z,68.03
2022-10-05T14:57:25.354Z,68.13
2022-10-05T15:00:12.367Z,68.20
2022-10-05T15:03:16.146Z,68.31
2022-10-05T15:05:59.369Z,68.39
2022-10-05T15:08:59.983Z,68.53
2022-10-05T15:11:56.360Z,68.67
2022-10-05T15:14:27.199Z,68.64
2022-10-05T15:17:01.734Z,68.75
2022-10-05T15:19:40.954Z,68.89
2022-10-05T15:22:25.301Z,69.01
2022-10-05T15:25:15.081Z,69.11
2022-10-05T15:28:09.574Z,69.17
2022-10-05T15:30:55.913Z,69.21
2022-10-05T15:34:00.117Z,69.12
2022-10-05T15:36:50.194Z,69.35
2022-10-05T15:39:34.621Z,69.51
2022-10-05T15:42:09.623Z,69.53
2022-10-05T15:45:00.104Z,69.63
2022-10-05T15:47:47.186Z,69.76
2022-10-05T15:50:26.385Z,69.84
2022-10-05T15:53:07.295Z,69.97
2022-10-05T15:55:54.727Z,69.94
2022-10-05T15:58:31.083Z,70.16
2022-10-05T16:01:07.962Z,70.26
2022-10-05T16:04:07.764Z,70.43
2022-10-05T16:07:23.368Z,70.50
2022-10-05T16:10:15.977Z,70.85
2022-10-05T16:13:15.846Z,70.83
2022-10-05T16:15:55.138Z,71.07
2022-10-05T16:18:45.646Z,71.19
2022-10-05T16:21:19.446Z,71.26
2022-10-05T16:24:07.035Z,71.40
2022-10-05T16:27:04.151Z,71.63
2022-10-05T16:30:00.396Z,71.75
2022-10-05T16:32:46.677Z,71.90
2022-10-05T16:35:24.853Z,72.04
2022-10-05T16:38:14.669Z,72.13
2022-10-05T16:41:01.883Z,72.31
2022-10-05T16:43:46.033Z,72.59
2022-10-05T16:46:27.758Z,72.62
2022-10-05T16:49:04.127Z,72.72
2022-10-05T16:51:59.808Z,72.81
2022-10-05T16:54:48.938Z,72.96
2022-10-05T16:57:45.312Z,73.17
2022-10-05T17:00:21.067Z,73.34
2022-10-05T17:03:11.318Z,73.38
2022-10-05T17:05:55.622Z,73.72
2022-10-05T17:08:45.895Z,73.81
2022-10-05T17:11:45.754Z,73.93
2022-10-05T17:14:45.485Z,74.09
2022-10-05T17:17:36.474Z,74.29
2022-10-05T17:20:35.407Z,74.46
2022-10-05T17:23:23.399Z,74.56
2022-10-05T17:26:24.045Z,74.67
2022-10-05T17:28:51.660Z,74.89
2022-10-05T17:31:22.258Z,75.11
2022-10-05T17:34:13.062Z,75.24
2022-10-05T17:36:42.858Z,75.45
2022-10-05T17:39:17.899Z,75.59
2022-10-05T17:41:46.797Z,75.76
2022-10-05T17:44:16.148Z,76.00
2022-10-05T17:46:48.455Z,76.20
2022-10-05T17:49:33.991Z,76.34
2022-10-05T17:52:23.485Z,76.65
2022-10-05T17:55:12.563Z,76.75
2022-10-05T17:57:41.872Z,76.96
2022-10-05T18:00:25.464Z,77.02
2022-10-05T18:02:58.045Z,77.26
2022-10-05T18:05:28.569Z,77.36
2022-10-05T18:08:12.777Z,77.42
2022-10-05T18:11:12.483Z,77.50
2022-10-05T18:13:46.256Z,77.96
2022-10-05T18:16:49.937Z,77.74
2022-10-05T18:19:21.762Z,77.94
2022-10-05T18:22:30.299Z,78.10
2022-10-05T18:25:29.566Z,78.25
2022-10-05T18:28:12.124Z,78.46
2022-10-05T18:30:59.151Z,78.63
2022-10-05T18:33:30.378Z,78.78
2022-10-05T18:36:36.894Z,78.83
2022-10-05T18:39:21.792Z,78.96
2022-10-05T18:42:06.941Z,79.16
2022-10-05T18:44:48.335Z,79.46
2022-10-05T18:47:34.665Z,79.38
2022-10-05T18:50:21.673Z,79.39
2022-10-05T18:53:02.028Z,79.25
2022-10-05T18:55:43.552Z,79.28
2022-10-05T18:58:36.004Z,79.31
2022-10-05T19:01:29.178Z,79.46
2022-10-05T19:04:04.891Z,79.48
2022-10-05T19:06:51.747Z,79.67
2022-10-05T19:09:41.503Z,79.71
2022-10-05T19:12:19.992Z,79.91
2022-10-05T19:14:51.031Z,79.88
2022-10-05T19:17:18.733Z,80.11
2022-10-05T19:20:18.426Z,80.17
2022-10-05T19:22:52.204Z,80.39
2022-10-05T19:25:20.498Z,80.50
2022-10-05T19:27:55.541Z,80.66
2022-10-05T19:30:27.195Z,80.62
2022-10-05T19:33:34.508Z,80.57
2022-10-05T19:36:34.201Z,80.59
2022-10-05T19:39:17.275Z,80.82
2022-10-05T19:41:47.829Z,80.90
2022-10-05T19:44:45.985Z,80.96
2022-10-05T19:47:40.263Z,80.90
2022-10-05T19:50:27.631Z,80.85
2022-10-05T19:53:12.740Z,81.07
2022-10-05T19:55:43.672Z,81.26
2022-10-05T19:58:28.839Z,81.08
2022-10-05T20:01:02.295Z,81.43
2022-10-05T20:03:32.347Z,81.36
2022-10-05T20:06:02.375Z,81.57
2022-10-05T20:08:46.851Z,81.50
2022-10-05T20:11:20.412Z,81.66
2022-10-05T20:13:48.058Z,81.77
2022-10-05T20:16:31.822Z,81.88
2022-10-05T20:19:15.866Z,81.89
2022-10-05T20:22:19.426Z,81.99
2022-10-05T20:24:52.899Z,82.03
2022-10-05T20:27:42.297Z,82.30
2022-10-05T20:30:12.957Z,82.26
2022-10-05T20:32:41.471Z,82.27
2022-10-05T20:35:09.332Z,82.24
2022-10-05T20:37:37.092Z,82.31
2022-10-05T20:40:06.724Z,82.39
2022-10-05T20:42:34.781Z,82.44
2022-10-05T20:45:04.078Z,82.61
2022-10-05T20:47:32.180Z,82.76
2022-10-05T20:50:01.981Z,82.57
2022-10-05T20:52:31.574Z,82.68
2022-10-05T20:55:00.282Z,82.93
2022-10-05T20:57:27.981Z,82.79
2022-10-05T20:59:55.641Z,82.92
2022-10-05T21:02:23.657Z,83.13
2022-10-05T21:04:51.712Z,83.21
2022-10-05T21:07:21.078Z,83.35
2022-10-05T21:09:49.571Z,83.42
2022-10-05T21:12:17.338Z,83.60
2022-10-05T21:14:46.176Z,83.76
2022-10-05T21:17:14.180Z,83.74
2022-10-05T21:19:41.987Z,83.76
2022-10-05T21:22:10.342Z,84.05
2022-10-05T21:24:40.714Z,84.03
2022-10-05T21:27:10.172Z,83.99
2022-10-05T21:29:40.861Z,84.07
2022-10-05T21:32:11.252Z,84.14
2022-10-05T21:34:40.260Z,84.12
2022-10-05T21:37:08.711Z,84.15
2022-10-05T21:39:36.784Z,84.05
2022-10-05T21:42:04.664Z,84.05
2022-10-05T21:44:32.403Z,84.14
2022-10-05T21:47:00.094Z,84.13
2022-10-05T21:49:28.274Z,84.24
2022-10-05T21:51:56.991Z,84.28
2022-10-05T21:54:24.863Z,84.22
2022-10-05T21:56:56.111Z,84.28
2022-10-05T21:59:29.122Z,84.20
2022-10-05T22:01:57.407Z,84.29
2022-10-05T22:04:25.642Z,84.17
2022-10-05T22:06:55.442Z,84.19
2022-10-05T22:09:23.286Z,84.40
2022-10-05T22:11:51.404Z,84.53
2022-10-05T22:14:19.098Z,84.40
2022-10-05T22:16:47.182Z,84.36
2022-10-05T22:19:18.693Z,84.28
2022-10-05T22:21:46.834Z,84.49
2022-10-05T22:24:14.588Z,84.46
2022-10-05T22:26:45.982Z,84.40
2022-10-05T22:29:15.905Z,84.53
2022-10-05T22:31:46.247Z,84.48
2022-10-05T22:34:15.500Z,84.53
2022-10-05T22:36:43.392Z,84.47
2022-10-05T22:39:11.192Z,84.58
2022-10-05T22:41:38.849Z,84.51
2022-10-05T22:44:07.582Z,84.57
2022-10-05T22:46:35.817Z,84.78
2022-10-05T22:49:03.521Z,84.63
2022-10-05T22:51:31.227Z,84.72
2022-10-05T22:53:58.901Z,84.65
2022-10-05T22:56:26.962Z,84.80
2022-10-05T22:58:54.674Z,84.81
2022-10-05T23:01:22.667Z,84.88
2022-10-05T23:03:50.703Z,84.80
2022-10-05T23:06:20.445Z,84.97
2022-10-05T23:08:48.135Z,84.89
2022-10-05T23:11:23.667Z,84.86
2022-10-05T23:13:56.799Z,84.87
2022-10-05T23:16:26.944Z,84.94
2022-10-05T23:18:55.313Z,84.97
2022-10-05T23:21:25.193Z,84.80
2022-10-05T23:23:53.080Z,84.78
2022-10-05T23:26:23.276Z,84.95
2022-10-05T23:28:51.014Z,85.00
2022-10-05T23:31:24.396Z,85.04
2022-10-05T23:33:53.635Z,85.12
2022-10-05T23:36:32.318Z,85.24
2022-10-05T23:39:00.343Z,85.35
2022-10-05T23:41:28.795Z,85.42
2022-10-05T23:43:56.503Z,85.38
2022-10-05T23:46:24.544Z,85.38
2022-10-05T23:48:53.134Z,85.45
2022-10-05T23:51:20.827Z,85.44
2022-10-05T23:53:48.501Z,85.57
2022-10-05T23:56:16.432Z,85.60
2022-10-05T23:58:45.041Z,85.87
